Welcome to our new website - Welkom op onze vernieuwde website - Bienvenue sur notre nouveau site web - Willkommen auf unserer neuen Website
Check our progress frequently. Prüfen Sie unsere Fortschritte regelmäßig. Consultez notre progression fréquemment. Komt u straks nog eens terug

Bezoek ook deze websites:

Template documentation
and downloads

And another site



Het weer levert geen direct gevaar op.    Er zijn geen waarschuwingen afgegeven.

METAR rapporten vliegvelden

   
EHDL - Deelen Rnlafb, Netherlands
Afstand tot: ZW 55 km
Gewijzigd: 18-01-2022 01:25
Nevel, Bewolking  
Nevel, Bewolking  
   Wind: Westen 3.7 km/h
Wind: Westen 3.7 km/h
Temperatuur: 6°C
Dauwpunt: 6°C
Vochtigheid: 100%
Barometer: 1037 hPa
Bewolking: Bewolking
Zicht: 5 km
Bewolking: Gedeeltelijk bewolkt 600 ft,
Bewolking 700 ft
EHDL 180025Z AUTO 26002KT 5000 BR SCT006 OVC007 06/06 Q1037 YLO
EHLE - Lelystad, Netherlands
Afstand tot: W 64 km
Gewijzigd: 18-01-2022 01:25
Nevel, Helder  
Nevel, Helder  
   Wind: NW 11.1 km/h
Wind: NW 11.1 km/h
Temperatuur: 3°C
Voelt als: 0°C
Dauwpunt: 3°C
Vochtigheid: 100%
Barometer: 1037 hPa
Bewolking: Helder
Zicht: 5 km
Bewolking: Helder
EHLE 180025Z AUTO 31006KT 5000 BR NCD 03/03 Q1037
ETWM - Meppen, Germany
Afstand tot: ONO 69 km
Gewijzigd: 18-01-2022 01:20
  
  
   Wind: Westen 5.6 km/h
Wind: Westen 5.6 km/h
Temperatuur: 6°C
Voelt als: 5°C
Dauwpunt: 5°C
Vochtigheid: 93%
Barometer: 1035 hPa
ETWM 180020Z AUTO 28003KT //// // ////// 06/05 Q1035 ///
EHGG - Groningen/Eelde, Netherlands
Afstand tot: N 79 km
Gewijzigd: 18-01-2022 01:25
Grotendeels bewolkt  
Grotendeels bewolkt  
   Wind: WNW 14.8 km/h
Wind: WNW 14.8 km/h
Temperatuur: 6°C
Voelt als: 3°C
Dauwpunt: 5°C
Vochtigheid: 93%
Barometer: 1036 hPa
Bewolking: Grotendeels bewolkt
Zicht: 6 km
Bewolking: Licht bewolkt 500 ft,
Grotendeels bewolkt 1000 ft
EHGG 180025Z AUTO 30008KT 6000 FEW005 BKN010 06/05 Q1036
EDDG - Muenster/Osnabru, Germany
Afstand tot: OZO 90 km
Gewijzigd: 18-01-2022 01:20
Grotendeels bewolkt  
Grotendeels bewolkt  
   Wind: Westen 9.3 km/h
Wind: Westen 9.3 km/h
Temperatuur: 6°C
Voelt als: 4°C
Dauwpunt: 5°C
Vochtigheid: 93%
Barometer: 1036 hPa
Bewolking: Grotendeels bewolkt
Zicht: meer dan 10 km
Bewolking: Gedeeltelijk bewolkt 1600 ft,
Grotendeels bewolkt 2200 ft
EDDG 180020Z 26005KT 9999 SCT016 BKN022 06/05 Q1036 BECMG BKN012
EDLV - Niederrhein, Germany
Afstand tot: ZZW 92 km
Gewijzigd: 17-01-2022 23:50
Verouderd
Grotendeels bewolkt  
Grotendeels bewolkt  
   Wind: Kalm
Wind: Kalm
Temperatuur: 6°C
Dauwpunt: 5°C
Vochtigheid: 93%
Barometer: 1037 hPa
Bewolking: Grotendeels bewolkt
Zicht: meer dan 10 km
Bewolking: Grotendeels bewolkt 1500 ft
EDLV 172250Z 00000KT 9999 BKN015 06/05 Q1037

Script ontwikkeld door  Saratoga-weather.org Aangepast voor de template door  Weerstation Leuven

U vindt ons ook hier:

Het Weer Aktueel

European Weather Network

Weather Underground

Benelux Weer Netwerk

Apparatuur in gebruik:

Weerstation
Davis VP2

Weerprogramma
Meteobridge

Weercomputer
Meteobridge Pro+

Webleverancier
vip.nl

Davis VP2

Meteobridge

Meteobridge Pro+

vip.nl